KSDLMMSD

Guest
Details From KSDL - SCOTTSDALE
To MMSD - LOS CABOS INTL
Flight Number -
Tags generated
Created
Modified
Stats Distance 652 nm / 1,207 km
Max Altitude 35,000 ft / 10,668 m
Waypoints 8
Social Downloads 1
Likes 0
Share VATSIM

Download

Looking for another format? Having issues loading an existing format? Contact us
Advertisement - Login to hide

Notes

Basic altitude profile: - Ascent Rate: 2500ft/min - Ascent Speed: 250kts - Cruise Altitude: 45000ft - Cruise Speed: 380kts - Descent Rate: 1500ft/min - Descent Speed: 250kts Options: - Use NATs: yes - Use PACOTS: yes - Use low airways: yes - Use high airways: yes

Route

KSDL TUS J92 GYM UJ14 AMOKA MMSD

ID Type Via Altitude Latitude Longitude Leg Dist Tot Dist Heading (true) Name
O KSDL APT - 0 ft / 0 m 33.62288˚ -111.91053˚ - 0 nm - SCOTTSDALE
TUS VOR - 35,000 ft / 10,668 m 32.09519˚ -110.91486˚ 104 nm 104 nm 151° / 152° TUCSON VORTAC
VYLLA FIX J92 (AWY-HI) 34,000 ft / 10,363 m 31.33343˚ -110.94989˚ 45 nm 150 nm 182° / 182° -
BEXOX FIX J92 (AWY-HI) 34,000 ft / 10,363 m 30.44451˚ -110.99142˚ 53 nm 203 nm 182° / 182° -
HMO VOR J92 (AWY-HI) 34,000 ft / 10,363 m 29.09556˚ -111.05206˚ 81 nm 284 nm 182° / 182° HERMOSILLO VOR-DME
GYM NDB J92 (AWY-HI) 35,000 ft / 10,668 m 27.95576˚ -110.92905˚ 68 nm 353 nm 175° / 175° GUAYMAS NDB
AMOKA FIX UJ14 (AWY-HI) 21,200 ft / 6,462 m 24.80404˚ -109.78486˚ 199 nm 552 nm 162° / 162° -
O MMSD APT - 0 ft / 0 m 23.15185˚ -109.72104˚ 99 nm 651 nm 178° / 178° LOS CABOS INTL

Altitude Profile

Advertisement - Login to hide

Weather


0- 5 10 15 20 25 30 35+ Temperature / ° C

Clouds and Precipitation
Forecast for 2017-12-18 18:00 UTC. Updated 2 hours ago

Ground ~20,000 ft ~40,000 ft Winds

KSDL

Details ICAO KSDL (ZSY)
Name SCOTTSDALE
Region United States
Timezone America/Phoenix (UTC-7.0)
Stats Elevation 1,510 ft / 460 m (AMSL)
Location 33.622881° -111.910535°
Runways 1
Magnetic Variation 10.312° E

METAR

KSDL 181453Z 00000KT 10SM CLR 07/04 A3012 RMK AO2 SLP192 T00670039 53022

Decode

TAF

KSDL 181120Z 1812/1912 VRB03KT P6SM FEW120 FM182000 24005KT P6SM SKC FM190300 00000KT P6SM SKC

Decode

Departure Runways

ID Width Length Bearing (true) Bearing (mag) Surface Threshold Offset Overrun Length
03 100 ft / 30 m 8,253 ft / 2,516 m 43.82° 33.51° Asphalt 740 ft / 226 m 0 ft / 0 m
21 100 ft / 30 m 8,253 ft / 2,516 m 223.83° 213.52° Asphalt 400 ft / 122 m 0 ft / 0 m

MMSD

Details ICAO MMSD (SJD)
Name LOS CABOS INTL
Region Mexico
Timezone America/Mazatlan (UTC-7.0)
Stats Elevation 374 ft / 114 m (AMSL)
Location 23.151850° -109.721044°
Runways 1
Magnetic Variation 8.325° E

METAR

MMSD 181349Z 36005KT 10SM SCT140 15/12 A3001 RMK 8/030 CI

Decode

TAF

Not found

Destination Runways

ID Width Length Bearing (true) Bearing (mag) Surface Threshold Offset Overrun Length
16 148 ft / 45 m 9,857 ft / 3,004 m 173.75° 165.42° Asphalt 0 ft / 0 m 215 ft / 66 m
34 148 ft / 45 m 9,857 ft / 3,004 m 353.75° 345.42° Asphalt 0 ft / 0 m 200 ft / 61 m

Popular Alternatives